createdAt,value
2018-11-11T18:11:08.670Z,-12.69
2018-11-11T18:12:12.294Z,-12.90
2018-11-11T18:13:15.973Z,-13.13
2018-11-11T18:14:19.638Z,-13.27
2018-11-11T18:15:24.652Z,-13.41
2018-11-11T18:16:28.470Z,-13.55
2018-11-11T18:17:31.927Z,-13.69
2018-11-11T18:18:35.673Z,-13.84
2018-11-11T18:19:39.025Z,-13.98
2018-11-11T18:20:42.739Z,-14.11
2018-11-11T18:21:46.438Z,-14.25
2018-11-11T18:22:50.392Z,-14.43
2018-11-11T18:23:54.148Z,-14.58
2018-11-11T18:24:57.243Z,-14.75
2018-11-11T18:26:01.134Z,-14.89
2018-11-11T18:27:04.851Z,-15.05
2018-11-11T18:28:08.772Z,-15.20
2018-11-11T18:29:12.492Z,-15.34
2018-11-11T18:30:17.425Z,-14.18
2018-11-11T18:31:21.112Z,-14.39
2018-11-11T18:32:24.523Z,-14.59
2018-11-11T18:33:28.354Z,-14.79
2018-11-11T18:34:32.235Z,-15.00
2018-11-11T18:35:36.017Z,-15.18
2018-11-11T18:36:39.634Z,-15.34
2018-11-11T18:37:43.521Z,-15.51
2018-11-11T18:38:47.219Z,-15.70
2018-11-11T18:39:51.284Z,-15.84
2018-11-11T18:40:54.802Z,-15.90
2018-11-11T18:41:58.563Z,-15.89
2018-11-11T18:43:02.176Z,-15.84
2018-11-11T18:44:06.046Z,-15.79
2018-11-11T18:45:09.638Z,-15.63
2018-11-11T18:46:13.438Z,-14.98
2018-11-11T18:47:17.255Z,-14.27
2018-11-11T18:48:20.931Z,-13.62
2018-11-11T18:49:24.406Z,-13.01
2018-11-11T18:50:29.440Z,-12.43
2018-11-11T18:51:33.137Z,-11.91
2018-11-11T18:52:36.535Z,-11.41
2018-11-11T18:53:40.164Z,-10.94
2018-11-11T18:54:44.020Z,-10.49
2018-11-11T18:55:47.624Z,-10.07
2018-11-11T18:56:51.385Z,-9.67
2018-11-11T18:57:55.034Z,-9.28
2018-11-11T18:58:58.721Z,-8.91
2018-11-11T19:00:02.363Z,-8.56
2018-11-11T19:01:06.198Z,-8.21
2018-11-11T19:02:09.942Z,-7.87
2018-11-11T19:03:13.687Z,-7.56
2018-11-11T19:04:17.212Z,-7.23
2018-11-11T19:05:21.576Z,-6.93
2018-11-11T19:06:25.029Z,-6.61
2018-11-11T19:07:28.689Z,-6.33
2018-11-11T19:08:31.730Z,-6.04
2018-11-11T19:09:35.325Z,-5.88
2018-11-11T19:10:39.166Z,-6.42
2018-11-11T19:11:42.831Z,-7.11
2018-11-11T19:12:47.263Z,-7.87
2018-11-11T19:13:51.128Z,-8.64
2018-11-11T19:14:54.633Z,-9.37
2018-11-11T19:15:58.520Z,-9.96
2018-11-11T19:17:02.097Z,-10.51
2018-11-11T19:18:06.003Z,-11.04
2018-11-11T19:19:09.497Z,-11.52
2018-11-11T19:20:14.254Z,-12.00
2018-11-11T19:21:17.999Z,-12.75
2018-11-11T19:22:21.141Z,-12.81
2018-11-11T19:23:24.703Z,-13.18
2018-11-11T19:24:28.589Z,-13.52
2018-11-11T19:25:32.647Z,-13.82
2018-11-11T19:26:36.251Z,-14.10
2018-11-11T19:27:39.800Z,-14.37
2018-11-11T19:28:43.565Z,-14.64
2018-11-11T19:29:47.243Z,-14.87
2018-11-11T19:30:51.167Z,-15.10
2018-11-11T19:31:54.944Z,-15.30
2018-11-11T19:32:58.651Z,-15.50
2018-11-11T19:34:02.141Z,-15.69
2018-11-11T19:35:06.040Z,-15.85
2018-11-11T19:36:09.514Z,-16.02
2018-11-11T19:37:13.285Z,-16.16
2018-11-11T19:38:16.877Z,-16.32
2018-11-11T19:39:20.375Z,-16.46
2018-11-11T19:40:25.119Z,-16.59
2018-11-11T19:41:28.704Z,-16.71
2018-11-11T19:42:32.179Z,-16.86
2018-11-11T19:43:35.859Z,-16.95
2018-11-11T19:44:39.569Z,-17.07
2018-11-11T19:45:43.395Z,-17.17
2018-11-11T19:46:47.061Z,-17.27
2018-11-11T19:47:50.843Z,-17.37
2018-11-11T19:48:54.423Z,-17.49
2018-11-11T19:49:57.478Z,-17.58
2018-11-11T19:51:01.212Z,-17.66
2018-11-11T19:52:04.791Z,-17.75
2018-11-11T19:53:08.315Z,-17.82
2018-11-11T19:54:11.895Z,-17.89
2018-11-11T19:55:16.022Z,-17.97
2018-11-11T19:56:19.770Z,-18.06
2018-11-11T19:57:23.295Z,-18.14
2018-11-11T19:58:26.982Z,-18.19
2018-11-11T19:59:30.671Z,-18.29
2018-11-11T20:00:35.059Z,-18.36
2018-11-11T20:01:38.994Z,-18.42
2018-11-11T20:02:43.412Z,-18.48
2018-11-11T20:03:47.066Z,-18.55
2018-11-11T20:04:50.960Z,-18.61
2018-11-11T20:05:54.129Z,-18.65
2018-11-11T20:06:57.775Z,-18.69
2018-11-11T20:08:02.278Z,-18.76
2018-11-11T20:09:06.087Z,-18.82
2018-11-11T20:10:09.784Z,-18.87
2018-11-11T20:11:13.561Z,-18.95
2018-11-11T20:12:17.238Z,-18.99
2018-11-11T20:13:21.067Z,-19.05
2018-11-11T20:14:24.672Z,-19.10
2018-11-11T20:15:29.167Z,-19.16
2018-11-11T20:16:32.675Z,-19.20
2018-11-11T20:17:36.499Z,-18.70
2018-11-11T20:18:40.304Z,-17.95
2018-11-11T20:19:44.026Z,-17.22
2018-11-11T20:20:47.507Z,-16.54
2018-11-11T20:21:51.208Z,-15.92
2018-11-11T20:22:54.671Z,-15.31
2018-11-11T20:23:58.244Z,-14.77
2018-11-11T20:25:01.985Z,-14.22
2018-11-11T20:26:05.573Z,-13.73
2018-11-11T20:27:09.344Z,-13.25
2018-11-11T20:28:13.214Z,-12.79
2018-11-11T20:29:16.979Z,-12.35
2018-11-11T20:30:21.635Z,-11.94
2018-11-11T20:31:25.377Z,-11.53
2018-11-11T20:32:29.071Z,-11.14
2018-11-11T20:33:32.749Z,-10.77
2018-11-11T20:34:36.571Z,-10.43
2018-11-11T20:35:40.205Z,-10.09
2018-11-11T20:36:43.843Z,-9.76
2018-11-11T20:37:47.420Z,-9.43
2018-11-11T20:38:51.208Z,-9.11
2018-11-11T20:39:55.019Z,-8.80
2018-11-11T20:40:58.918Z,-8.50
2018-11-11T20:42:02.524Z,-8.22
2018-11-11T20:43:06.364Z,-7.94
2018-11-11T20:44:10.372Z,-7.66
2018-11-11T20:45:14.887Z,-7.40
2018-11-11T20:46:18.586Z,-7.14
2018-11-11T20:47:22.156Z,-6.88
2018-11-11T20:48:25.916Z,-6.63
2018-11-11T20:49:29.515Z,-7.87
2018-11-11T20:50:34.124Z,-6.13
2018-11-11T20:51:37.804Z,-5.89
2018-11-11T20:52:41.946Z,-5.67
2018-11-11T20:53:45.595Z,-5.45
2018-11-11T20:54:48.896Z,-5.23
2018-11-11T20:55:52.579Z,-5.02
2018-11-11T20:56:56.378Z,-4.81
2018-11-11T20:58:00.302Z,-4.61
2018-11-11T20:59:04.039Z,-4.40
2018-11-11T21:00:07.860Z,-4.22
2018-11-11T21:01:11.466Z,-4.00
2018-11-11T21:02:15.235Z,-3.80
2018-11-11T21:03:18.935Z,-3.60
2018-11-11T21:04:22.845Z,-3.41
2018-11-11T21:05:27.511Z,-3.25
2018-11-11T21:06:31.160Z,-3.07
2018-11-11T21:07:34.978Z,-2.90
2018-11-11T21:08:38.526Z,-2.71
2018-11-11T21:09:42.208Z,-2.54
2018-11-11T21:10:45.957Z,-2.40
2018-11-11T21:11:49.922Z,-2.24
2018-11-11T21:12:53.730Z,-2.08
2018-11-11T21:13:57.515Z,-1.94
2018-11-11T21:15:01.098Z,-1.81
2018-11-11T21:16:04.775Z,-1.64
2018-11-11T21:17:08.308Z,-1.52
2018-11-11T21:18:11.891Z,-1.37
2018-11-11T21:19:15.601Z,-1.23
2018-11-11T21:20:20.270Z,-1.10
2018-11-11T21:21:23.833Z,-0.97
2018-11-11T21:22:27.675Z,-0.83
2018-11-11T21:23:31.176Z,-0.69
2018-11-11T21:24:35.064Z,-0.57
2018-11-11T21:25:38.523Z,-0.43
2018-11-11T21:26:42.247Z,-0.32
2018-11-11T21:27:46.511Z,-0.21
2018-11-11T21:28:50.146Z,-0.07
2018-11-11T21:29:53.627Z,0.05
2018-11-11T21:30:57.310Z,0.17
2018-11-11T21:32:00.887Z,0.29
2018-11-11T21:33:04.237Z,0.41
2018-11-11T21:34:08.000Z,0.52
2018-11-11T21:35:11.944Z,0.63
2018-11-11T21:36:15.696Z,0.73
2018-11-11T21:37:19.387Z,0.85
2018-11-11T21:38:23.312Z,0.95
2018-11-11T21:39:26.883Z,1.07
2018-11-11T21:40:30.652Z,1.17
2018-11-11T21:41:34.364Z,1.27
2018-11-11T21:42:38.147Z,1.37
2018-11-11T21:43:41.991Z,1.48
2018-11-11T21:44:45.962Z,1.57
2018-11-11T21:45:49.560Z,1.67
2018-11-11T21:46:53.263Z,1.77
2018-11-11T21:47:56.866Z,1.87
2018-11-11T21:49:00.632Z,1.96
2018-11-11T21:50:04.233Z,2.07
2018-11-11T21:51:08.096Z,2.16
2018-11-11T21:52:11.832Z,2.28
2018-11-11T21:53:15.723Z,2.38
2018-11-11T21:54:19.318Z,2.48
2018-11-11T21:55:22.415Z,2.59
2018-11-11T21:56:25.847Z,2.66
2018-11-11T21:57:29.277Z,2.77
2018-11-11T21:58:32.743Z,2.88
2018-11-11T21:59:36.635Z,2.98
2018-11-11T22:00:39.767Z,3.06
2018-11-11T22:01:43.447Z,3.16
2018-11-11T22:02:47.389Z,3.25
2018-11-11T22:03:50.964Z,3.34
2018-11-11T22:04:54.721Z,3.44
2018-11-11T22:05:58.579Z,3.52
2018-11-11T22:07:02.306Z,3.61
2018-11-11T22:08:05.819Z,3.68
2018-11-11T22:09:09.741Z,3.21
2018-11-11T22:10:14.663Z,2.24
2018-11-11T22:11:18.587Z,1.08
2018-11-11T22:12:22.376Z,-0.11
2018-11-11T22:13:26.305Z,-1.30
2018-11-11T22:14:29.987Z,-2.44
2018-11-11T22:15:33.796Z,-3.53
2018-11-11T22:16:37.487Z,-4.50
2018-11-11T22:17:41.464Z,-5.42
2018-11-11T22:18:45.071Z,-6.27
2018-11-11T22:19:48.975Z,-7.06
2018-11-11T22:20:52.584Z,-7.76
2018-11-11T22:21:56.563Z,-8.44
2018-11-11T22:23:00.208Z,-9.02
2018-11-11T22:24:04.061Z,-9.60
2018-11-11T22:25:07.672Z,-10.11
2018-11-11T22:26:11.233Z,-10.94
2018-11-11T22:27:14.810Z,-11.05
2018-11-11T22:28:18.384Z,-11.45
2018-11-11T22:29:22.005Z,-11.86
2018-11-11T22:30:25.589Z,-12.19
2018-11-11T22:31:29.188Z,-12.53
2018-11-11T22:32:33.010Z,-12.85
2018-11-11T22:33:36.618Z,-13.16
2018-11-11T22:34:40.495Z,-13.42
2018-11-11T22:35:44.010Z,-13.68
2018-11-11T22:36:47.822Z,-13.94
2018-11-11T22:37:51.502Z,-14.17
2018-11-11T22:38:55.359Z,-14.39
2018-11-11T22:39:59.118Z,-14.61
2018-11-11T22:41:03.168Z,-14.79
2018-11-11T22:42:06.837Z,-14.97
2018-11-11T22:43:10.563Z,-15.14
2018-11-11T22:44:14.144Z,-15.34
2018-11-11T22:45:18.030Z,-15.49
2018-11-11T22:46:21.439Z,-15.65
2018-11-11T22:47:25.422Z,-15.81
2018-11-11T22:48:29.123Z,-15.97
2018-11-11T22:49:32.908Z,-16.11
2018-11-11T22:50:36.487Z,-16.27
2018-11-11T22:51:40.235Z,-16.39
2018-11-11T22:52:44.072Z,-16.51
2018-11-11T22:53:47.882Z,-16.64
2018-11-11T22:54:51.451Z,-16.76
2018-11-11T22:55:55.043Z,-16.88
2018-11-11T22:56:58.567Z,-16.99
2018-11-11T22:58:01.988Z,-17.08
2018-11-11T22:59:05.651Z,-17.13
2018-11-11T23:00:12.624Z,-17.21
2018-11-11T23:01:22.008Z,-17.29
2018-11-11T23:02:25.427Z,-17.38
2018-11-11T23:03:28.894Z,-17.45
2018-11-11T23:04:32.315Z,-17.52
2018-11-11T23:05:36.091Z,-17.60
2018-11-11T23:06:39.703Z,-17.67
2018-11-11T23:07:43.595Z,-17.75
2018-11-11T23:08:47.327Z,-17.82
2018-11-11T23:09:51.191Z,-17.91
2018-11-11T23:10:54.810Z,-18.00
2018-11-11T23:11:58.578Z,-18.07
2018-11-11T23:13:02.162Z,-18.13
2018-11-11T23:14:05.935Z,-18.21
2018-11-11T23:15:09.540Z,-18.30
2018-11-11T23:16:13.462Z,-18.36
2018-11-11T23:17:17.059Z,-18.42
2018-11-11T23:18:20.903Z,-18.49
2018-11-11T23:19:24.600Z,-18.55
2018-11-11T23:20:28.394Z,-18.63
2018-11-11T23:21:32.085Z,-18.71
2018-11-11T23:22:35.590Z,-18.78
2018-11-11T23:23:39.378Z,-18.84
2018-11-11T23:24:42.932Z,-18.90
2018-11-11T23:25:46.683Z,-18.94
2018-11-11T23:26:50.179Z,-18.99
2018-11-11T23:27:53.578Z,-19.04
2018-11-11T23:28:57.259Z,-19.10
2018-11-11T23:30:00.850Z,-19.15
2018-11-11T23:31:04.611Z,-19.22
2018-11-11T23:32:08.230Z,-19.26
2018-11-11T23:33:12.027Z,-19.31
2018-11-11T23:34:15.403Z,-19.37
2018-11-11T23:35:18.915Z,-19.42
2018-11-11T23:36:22.697Z,-19.47
2018-11-11T23:37:26.296Z,-19.53
2018-11-11T23:38:29.954Z,-19.50
2018-11-11T23:39:33.380Z,-18.81
2018-11-11T23:40:36.876Z,-18.06
2018-11-11T23:41:40.666Z,-17.36
2018-11-11T23:42:44.800Z,-16.69
2018-11-11T23:43:48.656Z,-16.08
2018-11-11T23:44:52.528Z,-15.51
2018-11-11T23:45:56.119Z,-14.98
2018-11-11T23:47:00.032Z,-14.46
2018-11-11T23:48:03.724Z,-13.96
2018-11-11T23:49:07.527Z,-13.49
2018-11-11T23:50:11.233Z,-13.04
2018-11-11T23:51:15.021Z,-12.61
2018-11-11T23:52:18.613Z,-12.21
2018-11-11T23:53:22.393Z,-11.83
2018-11-11T23:54:26.099Z,-11.44
2018-11-11T23:55:29.838Z,-11.08
2018-11-11T23:56:32.999Z,-10.74
2018-11-11T23:57:36.647Z,-10.40
2018-11-11T23:58:40.584Z,-10.06
2018-11-11T23:59:44.277Z,-9.74
